sensor_id;sensor_type;location;lat;lon;timestamp;pressure;altitude;pressure_sealevel;temperature;humidity
34931;BME280;21134;49.646;8.560;2023-09-19T00:00:30;99934.34;;;16.69;100.00
34931;BME280;21134;49.646;8.560;2023-09-19T00:02:59;99932.75;;;16.65;100.00
34931;BME280;21134;49.646;8.560;2023-09-19T00:05:27;99932.09;;;16.60;100.00
34931;BME280;21134;49.646;8.560;2023-09-19T00:07:56;99927.69;;;16.62;100.00
34931;BME280;21134;49.646;8.560;2023-09-19T00:10:23;99935.66;;;16.56;100.00
34931;BME280;21134;49.646;8.560;2023-09-19T00:12:52;99944.16;;;16.59;100.00
34931;BME280;21134;49.646;8.560;2023-09-19T00:15:20;99944.91;;;16.63;100.00
34931;BME280;21134;49.646;8.560;2023-09-19T00:17:47;99950.91;;;16.63;100.00
34931;BME280;21134;49.646;8.560;2023-09-19T00:20:13;99949.38;;;16.58;100.00
34931;BME280;21134;49.646;8.560;2023-09-19T00:22:43;99945.75;;;16.63;100.00
34931;BME280;21134;49.646;8.560;2023-09-19T00:25:11;99950.91;;;16.63;100.00
34931;BME280;21134;49.646;8.560;2023-09-19T00:27:38;99959.38;;;16.67;100.00
34931;BME280;21134;49.646;8.560;2023-09-19T00:30:08;99951.63;;;16.67;100.00
34931;BME280;21134;49.646;8.560;2023-09-19T00:32:40;99952.44;;;16.69;100.00
34931;BME280;21134;49.646;8.560;2023-09-19T00:35:06;99949.84;;;16.69;100.00
34931;BME280;21134;49.646;8.560;2023-09-19T00:37:34;99952.44;;;16.69;100.00
34931;BME280;21134;49.646;8.560;2023-09-19T00:40:02;99942.22;;;16.66;100.00
34931;BME280;21134;49.646;8.560;2023-09-19T00:42:30;99948.22;;;16.66;100.00
34931;BME280;21134;49.646;8.560;2023-09-19T00:44:56;99946.47;;;16.67;100.00
34931;BME280;21134;49.646;8.560;2023-09-19T00:47:23;99957.75;;;16.64;100.00
34931;BME280;21134;49.646;8.560;2023-09-19T00:49:50;99958.66;;;16.63;100.00
34931;BME280;21134;49.646;8.560;2023-09-19T00:52:18;99959.53;;;16.62;100.00
34931;BME280;21134;49.646;8.560;2023-09-19T00:54:46;99966.41;;;16.63;100.00
34931;BME280;21134;49.646;8.560;2023-09-19T00:57:14;99967.88;;;16.70;100.00
34931;BME280;21134;49.646;8.560;2023-09-19T00:59:42;99965.28;;;16.70;100.00
34931;BME280;21134;49.646;8.560;2023-09-19T01:02:09;99967.97;;;16.67;100.00
34931;BME280;21134;49.646;8.560;2023-09-19T01:04:38;99973.03;;;16.70;100.00
34931;BME280;21134;49.646;8.560;2023-09-19T01:07:04;99975.38;;;16.78;100.00
34931;BME280;21134;49.646;8.560;2023-09-19T01:09:31;99989.06;;;16.82;100.00
34931;BME280;21134;49.646;8.560;2023-09-19T01:12:03;99983.81;;;16.83;100.00
34931;BME280;21134;49.646;8.560;2023-09-19T01:14:40;99988.78;;;16.89;100.00
34931;BME280;21134;49.646;8.560;2023-09-19T01:17:14;99987.03;;;16.90;100.00
34931;BME280;21134;49.646;8.560;2023-09-19T01:20:11;99991.03;;;16.99;100.00
34931;BME280;21134;49.646;8.560;2023-09-19T01:22:48;99987.56;;;17.00;100.00
34931;BME280;21134;49.646;8.560;2023-09-19T01:25:42;99997.78;;;17.03;100.00
34931;BME280;21134;49.646;8.560;2023-09-19T01:28:30;99994.34;;;17.02;100.00
34931;BME280;21134;49.646;8.560;2023-09-19T01:31:04;99998.63;;;17.03;100.00
34931;BME280;21134;49.646;8.560;2023-09-19T01:33:56;99994.19;;;17.07;100.00
34931;BME280;21134;49.646;8.560;2023-09-19T01:36:24;100000.03;;;17.12;100.00
34931;BME280;21134;49.646;8.560;2023-09-19T01:38:51;99991.56;;;17.08;100.00
34931;BME280;21134;49.646;8.560;2023-09-19T01:41:24;99991.44;;;17.11;100.00
34931;BME280;21134;49.646;8.560;2023-09-19T01:43:52;100000.78;;;17.15;100.00
34931;BME280;21134;49.646;8.560;2023-09-19T01:46:24;99994.94;;;17.10;100.00
34931;BME280;21134;49.646;8.560;2023-09-19T01:48:57;99996.75;;;17.07;100.00
34931;BME280;21134;49.646;8.560;2023-09-19T01:51:34;100000.72;;;17.17;100.00
34931;BME280;21134;49.646;8.560;2023-09-19T01:54:07;100010.19;;;17.16;100.00
34931;BME280;21134;49.646;8.560;2023-09-19T01:56:37;100010.19;;;17.16;100.00
34931;BME280;21134;49.646;8.560;2023-09-19T01:59:10;100012.75;;;17.18;100.00
34931;BME280;21134;49.646;8.560;2023-09-19T02:01:40;100008.41;;;17.18;100.00
34931;BME280;21134;49.646;8.560;2023-09-19T02:04:10;100017.13;;;17.16;100.00
34931;BME280;21134;49.646;8.560;2023-09-19T02:06:39;100027.47;;;17.16;100.00
34931;BME280;21134;49.646;8.560;2023-09-19T02:09:06;100030.00;;;17.17;100.00
34931;BME280;21134;49.646;8.560;2023-09-19T02:11:32;100029.22;;;17.15;100.00
34931;BME280;21134;49.646;8.560;2023-09-19T02:13:59;100041.22;;;17.16;100.00
34931;BME280;21134;49.646;8.560;2023-09-19T02:16:25;100030.97;;;17.15;100.00
34931;BME280;21134;49.646;8.560;2023-09-19T02:18:53;100030.34;;;17.08;100.00
34931;BME280;21134;49.646;8.560;2023-09-19T02:21:20;100038.09;;;17.08;100.00
34931;BME280;21134;49.646;8.560;2023-09-19T02:23:47;100048.34;;;17.10;100.00
34931;BME280;21134;49.646;8.560;2023-09-19T02:26:13;100048.53;;;17.05;100.00
34931;BME280;21134;49.646;8.560;2023-09-19T02:28:40;100055.34;;;17.08;100.00
34931;BME280;21134;49.646;8.560;2023-09-19T02:31:06;100055.38;;;17.06;100.00
34931;BME280;21134;49.646;8.560;2023-09-19T02:33:33;100061.47;;;17.05;100.00
34931;BME280;21134;49.646;8.560;2023-09-19T02:36:02;100062.47;;;17.01;100.00
34931;BME280;21134;49.646;8.560;2023-09-19T02:38:30;100062.59;;;16.96;100.00
34931;BME280;21134;49.646;8.560;2023-09-19T02:40:57;100066.91;;;16.98;100.00
34931;BME280;21134;49.646;8.560;2023-09-19T02:43:24;100065.19;;;16.96;100.00
34931;BME280;21134;49.646;8.560;2023-09-19T02:45:51;100072.19;;;16.94;100.00
34931;BME280;21134;49.646;8.560;2023-09-19T02:48:18;100072.28;;;16.91;100.00
34931;BME280;21134;49.646;8.560;2023-09-19T02:50:45;100073.25;;;16.87;100.00
34931;BME280;21134;49.646;8.560;2023-09-19T02:53:13;100067.25;;;16.87;100.00
34931;BME280;21134;49.646;8.560;2023-09-19T02:55:40;100079.41;;;16.85;100.00
34931;BME280;21134;49.646;8.560;2023-09-19T02:58:08;100081.38;;;16.77;100.00
34931;BME280;21134;49.646;8.560;2023-09-19T03:00:37;100083.22;;;16.71;100.00
34931;BME280;21134;49.646;8.560;2023-09-19T03:03:04;100082.44;;;16.69;100.00
34931;BME280;21134;49.646;8.560;2023-09-19T03:05:33;100085.91;;;16.68;100.00
34931;BME280;21134;49.646;8.560;2023-09-19T03:08:00;100086.00;;;16.65;100.00
34931;BME280;21134;49.646;8.560;2023-09-19T03:10:28;100088.50;;;16.68;100.00
34931;BME280;21134;49.646;8.560;2023-09-19T03:12:56;100084.38;;;16.63;100.00
34931;BME280;21134;49.646;8.560;2023-09-19T03:15:23;100087.91;;;16.60;100.00
34931;BME280;21134;49.646;8.560;2023-09-19T03:17:49;100089.78;;;16.55;100.00
34931;BME280;21134;49.646;8.560;2023-09-19T03:20:17;100094.31;;;16.48;100.00
34931;BME280;21134;49.646;8.560;2023-09-19T03:22:44;100092.66;;;16.46;100.00
34931;BME280;21134;49.646;8.560;2023-09-19T03:25:10;100094.66;;;16.38;100.00
34931;BME280;21134;49.646;8.560;2023-09-19T03:27:39;100087.91;;;16.34;100.00
34931;BME280;21134;49.646;8.560;2023-09-19T03:30:07;100092.34;;;16.28;100.00
34931;BME280;21134;49.646;8.560;2023-09-19T03:32:34;100100.22;;;16.24;100.00
34931;BME280;21134;49.646;8.560;2023-09-19T03:35:01;100092.59;;;16.21;100.00
34931;BME280;21134;49.646;8.560;2023-09-19T03:37:30;100098.69;;;16.18;100.00
34931;BME280;21134;49.646;8.560;2023-09-19T03:39:57;100094.50;;;16.14;100.00
34931;BME280;21134;49.646;8.560;2023-09-19T03:42:24;100094.59;;;16.11;100.00
34931;BME280;21134;49.646;8.560;2023-09-19T03:44:53;100099.88;;;16.08;100.00
34931;BME280;21134;49.646;8.560;2023-09-19T03:47:20;100102.56;;;16.03;100.00
34931;BME280;21134;49.646;8.560;2023-09-19T03:49:47;100099.19;;;16.01;100.00
34931;BME280;21134;49.646;8.560;2023-09-19T03:52:13;100099.31;;;15.97;100.00
34931;BME280;21134;49.646;8.560;2023-09-19T03:54:40;100099.47;;;15.92;100.00
34931;BME280;21134;49.646;8.560;2023-09-19T03:57:07;100107.31;;;15.89;100.00
34931;BME280;21134;49.646;8.560;2023-09-19T03:59:34;100107.25;;;15.91;100.00
34931;BME280;21134;49.646;8.560;2023-09-19T04:02:02;100105.59;;;15.88;100.00
34931;BME280;21134;49.646;8.560;2023-09-19T04:04:29;100119.41;;;15.86;100.00
34931;BME280;21134;49.646;8.560;2023-09-19T04:06:56;100117.81;;;15.83;100.00
34931;BME280;21134;49.646;8.560;2023-09-19T04:09:23;100111.00;;;15.79;100.00
34931;BME280;21134;49.646;8.560;2023-09-19T04:11:49;100117.97;;;15.77;100.00
34931;BME280;21134;49.646;8.560;2023-09-19T04:14:16;100113.66;;;15.77;100.00
34931;BME280;21134;49.646;8.560;2023-09-19T04:16:43;100112.84;;;15.75;100.00
34931;BME280;21134;49.646;8.560;2023-09-19T04:19:10;100109.41;;;15.76;100.00
34931;BME280;21134;49.646;8.560;2023-09-19T04:21:39;100119.75;;;15.75;100.00
34931;BME280;21134;49.646;8.560;2023-09-19T04:24:06;100125.81;;;15.72;100.00
34931;BME280;21134;49.646;8.560;2023-09-19T04:26:33;100131.94;;;15.70;100.00
34931;BME280;21134;49.646;8.560;2023-09-19T04:29:00;100138.03;;;15.67;100.00
34931;BME280;21134;49.646;8.560;2023-09-19T04:31:26;100136.34;;;15.65;100.00
34931;BME280;21134;49.646;8.560;2023-09-19T04:33:52;100144.09;;;15.63;100.00
34931;BME280;21134;49.646;8.560;2023-09-19T04:36:20;100134.75;;;15.59;100.00
34931;BME280;21134;49.646;8.560;2023-09-19T04:38:47;100137.41;;;15.56;100.00
34931;BME280;21134;49.646;8.560;2023-09-19T04:41:15;100137.47;;;15.54;100.00
34931;BME280;21134;49.646;8.560;2023-09-19T04:43:42;100146.16;;;15.50;100.00
34931;BME280;21134;49.646;8.560;2023-09-19T04:46:08;100149.69;;;15.48;100.00
34931;BME280;21134;49.646;8.560;2023-09-19T04:48:35;100150.56;;;15.47;100.00
34931;BME280;21134;49.646;8.560;2023-09-19T04:51:03;100152.34;;;15.45;100.00
34931;BME280;21134;49.646;8.560;2023-09-19T04:53:31;100157.47;;;15.46;100.00
34931;BME280;21134;49.646;8.560;2023-09-19T04:55:57;100162.69;;;15.43;100.00
34931;BME280;21134;49.646;8.560;2023-09-19T04:58:23;100161.00;;;15.42;100.00
34931;BME280;21134;49.646;8.560;2023-09-19T05:00:50;100165.41;;;15.39;100.00
34931;BME280;21134;49.646;8.560;2023-09-19T05:03:17;100168.91;;;15.34;100.00
34931;BME280;21134;49.646;8.560;2023-09-19T05:05:46;100169.00;;;15.31;100.00
34931;BME280;21134;49.646;8.560;2023-09-19T05:08:12;100179.44;;;15.27;100.00
34931;BME280;21134;49.646;8.560;2023-09-19T05:10:41;100178.53;;;15.28;100.00
34931;BME280;21134;49.646;8.560;2023-09-19T05:13:07;100189.88;;;15.22;100.00
34931;BME280;21134;49.646;8.560;2023-09-19T05:15:34;100198.47;;;15.21;100.00
34931;BME280;21134;49.646;8.560;2023-09-19T05:18:02;100195.13;;;15.19;100.00
34931;BME280;21134;49.646;8.560;2023-09-19T05:20:28;100196.72;;;15.23;100.00
34931;BME280;21134;49.646;8.560;2023-09-19T05:22:58;100203.47;;;15.27;100.00
34931;BME280;21134;49.646;8.560;2023-09-19T05:25:26;100205.00;;;15.34;100.00
34931;BME280;21134;49.646;8.560;2023-09-19T05:27:56;100206.66;;;15.39;100.00
34931;BME280;21134;49.646;8.560;2023-09-19T05:30:24;100219.56;;;15.37;100.00
34931;BME280;21134;49.646;8.560;2023-09-19T05:32:52;100211.84;;;15.37;100.00
34931;BME280;21134;49.646;8.560;2023-09-19T05:35:19;100218.63;;;15.41;100.00
34931;BME280;21134;49.646;8.560;2023-09-19T05:37:46;100213.34;;;15.46;100.00
34931;BME280;21134;49.646;8.560;2023-09-19T05:40:16;100208.13;;;15.47;100.00
34931;BME280;21134;49.646;8.560;2023-09-19T05:42:42;100216.84;;;15.43;100.00
34931;BME280;21134;49.646;8.560;2023-09-19T05:45:10;100217.69;;;15.44;100.00
34931;BME280;21134;49.646;8.560;2023-09-19T05:47:37;100209.03;;;15.46;100.00
34931;BME280;21134;49.646;8.560;2023-09-19T05:50:06;100208.84;;;15.54;100.00
34931;BME280;21134;49.646;8.560;2023-09-19T05:52:34;100209.63;;;15.56;100.00
34931;BME280;21134;49.646;8.560;2023-09-19T05:55:00;100219.03;;;15.58;100.00
34931;BME280;21134;49.646;8.560;2023-09-19T05:57:27;100217.25;;;15.61;100.00
34931;BME280;21134;49.646;8.560;2023-09-19T05:59:54;100218.88;;;15.63;100.00
34931;BME280;21134;49.646;8.560;2023-09-19T06:02:22;100225.72;;;15.66;100.00
34931;BME280;21134;49.646;8.560;2023-09-19T06:04:48;100221.34;;;15.69;100.00
34931;BME280;21134;49.646;8.560;2023-09-19T06:07:18;100225.56;;;15.73;100.00
34931;BME280;21134;49.646;8.560;2023-09-19T06:09:44;100242.59;;;15.79;100.00
34931;BME280;21134;49.646;8.560;2023-09-19T06:12:10;100230.50;;;15.81;100.00
34931;BME280;21134;49.646;8.560;2023-09-19T06:14:39;100236.50;;;15.81;100.00
34931;BME280;21134;49.646;8.560;2023-09-19T06:17:05;100243.16;;;15.90;100.00
34931;BME280;21134;49.646;8.560;2023-09-19T06:19:33;100246.50;;;15.94;100.00
34931;BME280;21134;49.646;8.560;2023-09-19T06:21:59;100245.44;;;16.01;100.00
34931;BME280;21134;49.646;8.560;2023-09-19T06:24:26;100245.16;;;16.12;100.00
34931;BME280;21134;49.646;8.560;2023-09-19T06:26:53;100239.84;;;16.16;100.00
34931;BME280;21134;49.646;8.560;2023-09-19T06:29:20;100244.84;;;16.22;100.00
34931;BME280;21134;49.646;8.560;2023-09-19T06:31:48;100247.25;;;16.28;100.00
34931;BME280;21134;49.646;8.560;2023-09-19T06:34:16;100243.75;;;16.31;100.00
34931;BME280;21134;49.646;8.560;2023-09-19T06:36:44;100247.69;;;16.43;100.00
34931;BME280;21134;49.646;8.560;2023-09-19T06:39:11;100244.84;;;16.52;100.00
34931;BME280;21134;49.646;8.560;2023-09-19T06:41:39;100248.28;;;16.52;100.00
34931;BME280;21134;49.646;8.560;2023-09-19T06:44:06;100244.75;;;16.55;100.00
34931;BME280;21134;49.646;8.560;2023-09-19T06:46:34;100255.66;;;16.65;100.00
34931;BME280;21134;49.646;8.560;2023-09-19T06:49:04;100262.47;;;16.67;100.00
34931;BME280;21134;49.646;8.560;2023-09-19T06:51:31;100273.66;;;16.68;99.24
34931;BME280;21134;49.646;8.560;2023-09-19T06:54:01;100275.09;;;16.78;98.41
34931;BME280;21134;49.646;8.560;2023-09-19T06:56:27;100280.97;;;16.85;97.89
34931;BME280;21134;49.646;8.560;2023-09-19T06:58:53;100284.13;;;16.93;92.89
34931;BME280;21134;49.646;8.560;2023-09-19T07:01:20;100291.22;;;16.86;94.43
34931;BME280;21134;49.646;8.560;2023-09-19T07:03:46;100294.16;;;16.76;91.98
34931;BME280;21134;49.646;8.560;2023-09-19T07:06:13;100296.50;;;16.83;92.30
34931;BME280;21134;49.646;8.560;2023-09-19T07:08:39;100296.50;;;16.83;91.02
34931;BME280;21134;49.646;8.560;2023-09-19T07:11:07;100313.75;;;16.83;88.83
34931;BME280;21134;49.646;8.560;2023-09-19T07:13:33;100303.31;;;16.86;86.13
34931;BME280;21134;49.646;8.560;2023-09-19T07:16:00;100303.13;;;16.92;85.34
34931;BME280;21134;49.646;8.560;2023-09-19T07:18:27;100304.00;;;16.91;85.77
34931;BME280;21134;49.646;8.560;2023-09-19T07:20:57;100308.91;;;17.00;85.56
34931;BME280;21134;49.646;8.560;2023-09-19T07:23:26;100302.75;;;17.04;85.95
34931;BME280;21134;49.646;8.560;2023-09-19T07:25:56;100317.03;;;17.16;86.17
34931;BME280;21134;49.646;8.560;2023-09-19T07:28:25;100315.09;;;17.23;85.76
34931;BME280;21134;49.646;8.560;2023-09-19T07:30:53;100321.53;;;17.37;85.83
34931;BME280;21134;49.646;8.560;2023-09-19T07:33:19;100325.88;;;17.37;84.02
34931;BME280;21134;49.646;8.560;2023-09-19T07:35:47;100326.34;;;17.48;84.03
34931;BME280;21134;49.646;8.560;2023-09-19T07:38:13;100329.56;;;17.56;84.12
34931;BME280;21134;49.646;8.560;2023-09-19T07:40:40;100335.13;;;17.71;84.24
34931;BME280;21134;49.646;8.560;2023-09-19T07:43:06;100340.94;;;17.79;83.37
34931;BME280;21134;49.646;8.560;2023-09-19T07:45:35;100344.06;;;17.88;83.51
34931;BME280;21134;49.646;8.560;2023-09-19T07:48:02;100347.91;;;18.02;83.20
34931;BME280;21134;49.646;8.560;2023-09-19T07:50:33;100344.38;;;18.04;81.09
34931;BME280;21134;49.646;8.560;2023-09-19T07:53:02;100338.03;;;18.13;79.71
34931;BME280;21134;49.646;8.560;2023-09-19T07:55:30;100340.44;;;18.19;79.57
34931;BME280;21134;49.646;8.560;2023-09-19T07:57:58;100332.97;;;18.35;79.43
34931;BME280;21134;49.646;8.560;2023-09-19T08:00:25;100339.94;;;18.33;77.12
34931;BME280;21134;49.646;8.560;2023-09-19T08:02:53;100345.22;;;18.30;75.87
34931;BME280;21134;49.646;8.560;2023-09-19T08:05:19;100353.09;;;18.27;75.48
34931;BME280;21134;49.646;8.560;2023-09-19T08:07:47;100358.00;;;18.34;75.03
34931;BME280;21134;49.646;8.560;2023-09-19T08:10:15;100352.78;;;18.36;74.10
34931;BME280;21134;49.646;8.560;2023-09-19T08:12:45;100355.16;;;18.42;72.95
34931;BME280;21134;49.646;8.560;2023-09-19T08:15:13;100365.13;;;18.53;72.30
34931;BME280;21134;49.646;8.560;2023-09-19T08:17:40;100365.75;;;18.59;73.63
34931;BME280;21134;49.646;8.560;2023-09-19T08:20:09;100366.47;;;18.63;71.96
34931;BME280;21134;49.646;8.560;2023-09-19T08:22:42;100376.91;;;18.62;71.06
34931;BME280;21134;49.646;8.560;2023-09-19T08:25:09;100389.13;;;18.58;72.17
34931;BME280;21134;49.646;8.560;2023-09-19T08:27:35;100386.97;;;18.46;68.98
34931;BME280;21134;49.646;8.560;2023-09-19T08:30:02;100379.78;;;18.54;68.72
34931;BME280;21134;49.646;8.560;2023-09-19T08:32:29;100378.25;;;18.48;66.99
34931;BME280;21134;49.646;8.560;2023-09-19T08:34:55;100384.50;;;18.43;68.15
34931;BME280;21134;49.646;8.560;2023-09-19T08:37:23;100384.38;;;18.46;68.22
34931;BME280;21134;49.646;8.560;2023-09-19T08:39:49;100386.06;;;18.47;69.48
34931;BME280;21134;49.646;8.560;2023-09-19T08:42:16;100385.09;;;18.51;67.67
34931;BME280;21134;49.646;8.560;2023-09-19T08:44:45;100401.81;;;18.66;68.88
34931;BME280;21134;49.646;8.560;2023-09-19T08:47:14;100397.03;;;18.55;65.50
34931;BME280;21134;49.646;8.560;2023-09-19T08:49:53;100389.06;;;18.59;66.84
34931;BME280;21134;49.646;8.560;2023-09-19T08:52:28;100395.06;;;18.62;63.34
34931;BME280;21134;49.646;8.560;2023-09-19T08:55:01;100386.47;;;18.59;64.88
34931;BME280;21134;49.646;8.560;2023-09-19T08:57:33;100394.69;;;18.72;63.46
34931;BME280;21134;49.646;8.560;2023-09-19T09:00:01;100391.72;;;18.83;64.33
34931;BME280;21134;49.646;8.560;2023-09-19T09:02:31;100388.41;;;19.01;63.31
34931;BME280;21134;49.646;8.560;2023-09-19T09:04:59;100395.09;;;19.09;62.12
34931;BME280;21134;49.646;8.560;2023-09-19T09:07:28;100386.84;;;19.21;62.68
34931;BME280;21134;49.646;8.560;2023-09-19T09:09:54;100386.66;;;19.25;60.54
34931;BME280;21134;49.646;8.560;2023-09-19T09:12:22;100386.09;;;19.17;61.12
34931;BME280;21134;49.646;8.560;2023-09-19T09:14:48;100393.66;;;19.23;62.11
34931;BME280;21134;49.646;8.560;2023-09-19T09:17:15;100400.25;;;19.54;60.52
34931;BME280;21134;49.646;8.560;2023-09-19T09:19:45;100393.63;;;19.47;61.66
34931;BME280;21134;49.646;8.560;2023-09-19T09:22:12;100397.28;;;19.41;61.72
34931;BME280;21134;49.646;8.560;2023-09-19T09:24:52;100406.97;;;19.60;58.92
34931;BME280;21134;49.646;8.560;2023-09-19T09:27:20;100396.63;;;19.58;61.37
34931;BME280;21134;49.646;8.560;2023-09-19T09:29:50;100405.63;;;19.71;60.58
34931;BME280;21134;49.646;8.560;2023-09-19T09:32:18;100408.06;;;19.76;60.05
34931;BME280;21134;49.646;8.560;2023-09-19T09:34:45;100403.34;;;19.86;61.97
34931;BME280;21134;49.646;8.560;2023-09-19T09:37:13;100405.72;;;19.70;59.27
34931;BME280;21134;49.646;8.560;2023-09-19T09:39:49;100410.44;;;19.59;60.39
34931;BME280;21134;49.646;8.560;2023-09-19T09:42:30;100408.19;;;19.49;60.26
34931;BME280;21134;49.646;8.560;2023-09-19T09:45:14;100406.75;;;19.66;61.21
34931;BME280;21134;49.646;8.560;2023-09-19T09:47:42;100401.94;;;19.77;59.17
34931;BME280;21134;49.646;8.560;2023-09-19T09:50:10;100408.66;;;19.83;59.87
34931;BME280;21134;49.646;8.560;2023-09-19T09:52:45;100405.75;;;19.68;58.70
34931;BME280;21134;49.646;8.560;2023-09-19T09:55:12;100401.09;;;19.77;59.33
34931;BME280;21134;49.646;8.560;2023-09-19T09:57:40;100399.22;;;19.80;59.52
34931;BME280;21134;49.646;8.560;2023-09-19T10:00:10;100400.06;;;19.81;59.04
34931;BME280;21134;49.646;8.560;2023-09-19T10:02:45;100397.31;;;19.85;56.16
34931;BME280;21134;49.646;8.560;2023-09-19T10:05:13;100380.44;;;19.95;58.63
34931;BME280;21134;49.646;8.560;2023-09-19T10:07:46;100386.28;;;20.01;58.20
34931;BME280;21134;49.646;8.560;2023-09-19T10:10:15;100388.59;;;20.07;56.40
34931;BME280;21134;49.646;8.560;2023-09-19T10:12:48;100382.22;;;19.93;56.43
34931;BME280;21134;49.646;8.560;2023-09-19T10:15:16;100387.69;;;19.87;56.28
34931;BME280;21134;49.646;8.560;2023-09-19T10:17:46;100376.19;;;19.93;57.83
34931;BME280;21134;49.646;8.560;2023-09-19T10:20:14;100372.03;;;20.09;57.01
34931;BME280;21134;49.646;8.560;2023-09-19T10:22:53;100383.03;;;20.16;57.55
34931;BME280;21134;49.646;8.560;2023-09-19T10:25:25;100381.88;;;20.23;58.58
34931;BME280;21134;49.646;8.560;2023-09-19T10:27:56;100375.22;;;20.16;56.91
34931;BME280;21134;49.646;8.560;2023-09-19T10:30:24;100376.78;;;20.40;56.75
34931;BME280;21134;49.646;8.560;2023-09-19T10:32:57;100378.88;;;20.53;56.93
34931;BME280;21134;49.646;8.560;2023-09-19T10:35:26;100387.63;;;20.50;56.10
34931;BME280;21134;49.646;8.560;2023-09-19T10:37:54;100381.25;;;20.57;57.34
34931;BME280;21134;49.646;8.560;2023-09-19T10:40:24;100378.81;;;20.73;56.47
34931;BME280;21134;49.646;8.560;2023-09-19T10:43:00;100370.41;;;20.68;55.96
34931;BME280;21134;49.646;8.560;2023-09-19T10:45:28;100367.38;;;20.58;55.74
34931;BME280;21134;49.646;8.560;2023-09-19T10:47:56;100382.09;;;20.58;55.19
34931;BME280;21134;49.646;8.560;2023-09-19T10:50:23;100379.03;;;20.69;55.61
34931;BME280;21134;49.646;8.560;2023-09-19T10:52:53;100378.41;;;20.82;56.02
34931;BME280;21134;49.646;8.560;2023-09-19T10:55:27;100381.53;;;20.90;55.89
34931;BME280;21134;49.646;8.560;2023-09-19T10:57:56;100376.59;;;21.03;55.85
34931;BME280;21134;49.646;8.560;2023-09-19T11:00:50;100377.19;;;21.27;54.31
34931;BME280;21134;49.646;8.560;2023-09-19T11:03:18;100371.53;;;21.19;56.02
34931;BME280;21134;49.646;8.560;2023-09-19T11:06:01;100376.66;;;21.21;55.09
34931;BME280;21134;49.646;8.560;2023-09-19T11:08:30;100369.91;;;21.17;55.48
34931;BME280;21134;49.646;8.560;2023-09-19T11:10:58;100356.06;;;21.16;54.32
34931;BME280;21134;49.646;8.560;2023-09-19T11:13:26;100351.94;;;21.29;53.55
34931;BME280;21134;49.646;8.560;2023-09-19T11:16:18;100354.91;;;21.41;54.11
34931;BME280;21134;49.646;8.560;2023-09-19T11:18:52;100349.94;;;21.53;53.64
34931;BME280;21134;49.646;8.560;2023-09-19T11:21:53;100345.50;;;21.55;52.81
34931;BME280;21134;49.646;8.560;2023-09-19T11:24:30;100347.44;;;21.33;52.31
34931;BME280;21134;49.646;8.560;2023-09-19T11:27:16;100343.44;;;21.26;52.81
34931;BME280;21134;49.646;8.560;2023-09-19T11:29:45;100338.59;;;21.37;54.12
34931;BME280;21134;49.646;8.560;2023-09-19T11:32:12;100329.41;;;21.47;53.28
34931;BME280;21134;49.646;8.560;2023-09-19T11:34:45;100336.88;;;21.55;52.65
34931;BME280;21134;49.646;8.560;2023-09-19T11:40:36;100331.19;;;21.47;52.93
34931;BME280;21134;49.646;8.560;2023-09-19T11:43:32;100318.09;;;21.66;53.30
34931;BME280;21134;49.646;8.560;2023-09-19T11:46:06;100323.38;;;21.81;52.53
34931;BME280;21134;49.646;8.560;2023-09-19T11:48:32;100322.00;;;21.92;52.85
34931;BME280;21134;49.646;8.560;2023-09-19T11:51:10;100328.34;;;21.69;52.77
34931;BME280;21134;49.646;8.560;2023-09-19T11:53:42;100325.97;;;21.47;53.25
34931;BME280;21134;49.646;8.560;2023-09-19T11:56:09;100314.22;;;21.57;52.37
34931;BME280;21134;49.646;8.560;2023-09-19T11:58:37;100327.81;;;21.62;52.97
34931;BME280;21134;49.646;8.560;2023-09-19T12:01:05;100311.34;;;21.79;53.04
34931;BME280;21134;49.646;8.560;2023-09-19T12:03:42;100311.91;;;21.68;52.54
34931;BME280;21134;49.646;8.560;2023-09-19T12:06:13;100320.09;;;21.61;52.84
34931;BME280;21134;49.646;8.560;2023-09-19T12:08:41;100306.53;;;21.54;53.28
34931;BME280;21134;49.646;8.560;2023-09-19T12:11:12;100316.47;;;21.46;53.74
34931;BME280;21134;49.646;8.560;2023-09-19T12:13:42;100304.25;;;21.48;52.66
34931;BME280;21134;49.646;8.560;2023-09-19T12:16:13;100306.69;;;21.51;53.78
34931;BME280;21134;49.646;8.560;2023-09-19T12:18:41;100310.22;;;21.67;53.33
34931;BME280;21134;49.646;8.560;2023-09-19T12:21:21;100301.09;;;21.76;52.44
34931;BME280;21134;49.646;8.560;2023-09-19T12:23:57;100294.97;;;21.77;52.33
34931;BME280;21134;49.646;8.560;2023-09-19T12:26:26;100298.53;;;21.92;52.89
34931;BME280;21134;49.646;8.560;2023-09-19T12:28:54;100297.28;;;21.83;52.22
34931;BME280;21134;49.646;8.560;2023-09-19T12:31:22;100295.88;;;21.76;52.47
34931;BME280;21134;49.646;8.560;2023-09-19T12:33:53;100300.00;;;21.97;52.53
34931;BME280;21134;49.646;8.560;2023-09-19T12:36:20;100290.78;;;22.25;52.38
34931;BME280;21134;49.646;8.560;2023-09-19T12:38:50;100290.81;;;22.41;51.78
34931;BME280;21134;49.646;8.560;2023-09-19T12:41:18;100283.69;;;22.60;50.35
34931;BME280;21134;49.646;8.560;2023-09-19T12:43:46;100294.13;;;22.60;48.50
34931;BME280;21134;49.646;8.560;2023-09-19T12:46:12;100287.13;;;22.61;49.64
34931;BME280;21134;49.646;8.560;2023-09-19T12:48:41;100290.75;;;23.06;48.94
34931;BME280;21134;49.646;8.560;2023-09-19T12:51:11;100288.47;;;23.15;48.71
34931;BME280;21134;49.646;8.560;2023-09-19T12:53:38;100281.28;;;23.35;47.08
34931;BME280;21134;49.646;8.560;2023-09-19T12:56:08;100278.63;;;23.20;47.55
34931;BME280;21134;49.646;8.560;2023-09-19T12:58:48;100278.53;;;23.52;46.49